DOVO2: Cimarron River, Dover, OK

Data processed at Thu Jan 04 2018 23:47


All information presented herein is the property of the government of the United States of America and may be revised or deleted at any time without prior notice.
Dissemination of this information without the expressed written consent of the Public Affairs Office, Tulsa District U.S. Army Corps of Engineers is strictly prohibited.
These data are gathered electronically and, as presented, have not undergone any form of quality control. These data are not guaranteed to be valid or correct.
Go to home page.
Go to station list.

Upstream stations:

Downstream station:
Previous Day
Next Day
Current Day
    
SHEF ID:       DOVO2     Cimarron River near Dover, OK
STATION TYPE:  

               PRECIP     STAGE  RIV-FLOW  BAT-LOAD
                   in        ft       cfs      volt
              Ccp-Rev   Ccp-Rev   Ccp-Rev   Ccp-Rev
(US/Central)
01/02 00:00      0.00     10.12       135     12.57
01/02 01:00      0.00     10.12       135     12.49
01/02 02:00      0.00     10.12       135     12.49
01/02 03:00      0.00     10.12       135     12.49
01/02 04:00      0.00     10.12       135     12.49
01/02 05:00      0.00     10.13       137     12.49
01/02 06:00      0.00     10.13       137     12.41
01/02 07:00      0.00     10.13       137     12.41
01/02 08:00      0.00     10.13       137     12.41
01/02 09:00      0.00     10.13       137     12.49
01/02 10:00      0.00     10.12       135     12.65
01/02 11:00      0.00     10.12       135     13.05
01/02 12:00      0.00     10.12       135     13.29
01/02 13:00      0.00     10.15       141     13.37
01/02 14:00      0.00     10.17       145     13.53
01/02 15:00      0.00     10.18       147     13.44
01/02 16:00      0.00     10.16       143     13.53
01/02 17:00      0.00     10.17       145     13.29
01/02 18:00      0.00     10.17       145     12.97
01/02 19:00      0.00     10.16       143     12.73
01/02 20:00      0.00     10.15       141     12.65
01/02 21:00      0.00     10.13       137     12.57
01/02 22:00      0.00     10.11       133     12.57
01/02 23:00      0.00     10.11       133     12.57